sensor_id;sensor_type;location;lat;lon;timestamp;temperature;humidity
13835;DHT22;6988;52.614;13.500;2022-07-29T00:02:51;15.00;99.90
13835;DHT22;6988;52.614;13.500;2022-07-29T00:07:43;14.90;99.90
13835;DHT22;6988;52.614;13.500;2022-07-29T00:12:35;14.90;99.90
13835;DHT22;6988;52.614;13.500;2022-07-29T00:17:28;14.80;99.90
13835;DHT22;6988;52.614;13.500;2022-07-29T00:22:20;14.70;99.90
13835;DHT22;6988;52.614;13.500;2022-07-29T00:27:12;14.60;99.90
13835;DHT22;6988;52.614;13.500;2022-07-29T00:32:04;14.60;99.90
13835;DHT22;6988;52.614;13.500;2022-07-29T00:36:57;14.60;99.90
13835;DHT22;6988;52.614;13.500;2022-07-29T00:41:49;14.60;99.90
13835;DHT22;6988;52.614;13.500;2022-07-29T00:46:41;14.60;99.90
13835;DHT22;6988;52.614;13.500;2022-07-29T00:51:34;14.50;99.90
13835;DHT22;6988;52.614;13.500;2022-07-29T00:56:29;14.50;99.90
13835;DHT22;6988;52.614;13.500;2022-07-29T01:01:22;14.50;99.90
13835;DHT22;6988;52.614;13.500;2022-07-29T01:06:14;14.40;99.90
13835;DHT22;6988;52.614;13.500;2022-07-29T01:11:07;14.40;99.90
13835;DHT22;6988;52.614;13.500;2022-07-29T01:16:06;14.20;99.90
13835;DHT22;6988;52.614;13.500;2022-07-29T01:21:39;14.30;99.90
13835;DHT22;6988;52.614;13.500;2022-07-29T01:26:45;14.30;99.90
13835;DHT22;6988;52.614;13.500;2022-07-29T01:31:55;14.20;99.90
13835;DHT22;6988;52.614;13.500;2022-07-29T01:36:55;14.10;99.90
13835;DHT22;6988;52.614;13.500;2022-07-29T01:41:58;14.10;99.90
13835;DHT22;6988;52.614;13.500;2022-07-29T01:47:01;14.00;99.90
13835;DHT22;6988;52.614;13.500;2022-07-29T01:52:04;13.90;99.90
13835;DHT22;6988;52.614;13.500;2022-07-29T01:57:00;13.90;99.90
13835;DHT22;6988;52.614;13.500;2022-07-29T02:01:56;13.90;99.90
13835;DHT22;6988;52.614;13.500;2022-07-29T02:06:52;13.90;99.90
13835;DHT22;6988;52.614;13.500;2022-07-29T02:11:48;13.90;99.90
13835;DHT22;6988;52.614;13.500;2022-07-29T02:16:43;13.80;99.90
13835;DHT22;6988;52.614;13.500;2022-07-29T02:21:40;13.80;99.90
13835;DHT22;6988;52.614;13.500;2022-07-29T02:26:35;13.70;99.90
13835;DHT22;6988;52.614;13.500;2022-07-29T02:31:31;13.80;99.90
13835;DHT22;6988;52.614;13.500;2022-07-29T02:36:26;13.60;99.90
13835;DHT22;6988;52.614;13.500;2022-07-29T02:41:24;13.70;99.90
13835;DHT22;6988;52.614;13.500;2022-07-29T02:46:24;13.60;99.90
13835;DHT22;6988;52.614;13.500;2022-07-29T02:51:23;13.60;99.90
13835;DHT22;6988;52.614;13.500;2022-07-29T02:56:25;13.60;99.90
13835;DHT22;6988;52.614;13.500;2022-07-29T03:01:22;13.50;99.90
13835;DHT22;6988;52.614;13.500;2022-07-29T03:06:16;13.50;99.90
13835;DHT22;6988;52.614;13.500;2022-07-29T03:11:12;13.60;99.90
13835;DHT22;6988;52.614;13.500;2022-07-29T03:16:06;13.60;99.90
13835;DHT22;6988;52.614;13.500;2022-07-29T03:21:01;13.60;99.90
13835;DHT22;6988;52.614;13.500;2022-07-29T03:25:54;13.70;99.90
13835;DHT22;6988;52.614;13.500;2022-07-29T03:30:46;13.80;99.90
13835;DHT22;6988;52.614;13.500;2022-07-29T03:35:40;13.80;99.90
13835;DHT22;6988;52.614;13.500;2022-07-29T03:40:35;13.70;99.90
13835;DHT22;6988;52.614;13.500;2022-07-29T03:45:32;13.80;99.90
13835;DHT22;6988;52.614;13.500;2022-07-29T03:50:26;13.90;99.90
13835;DHT22;6988;52.614;13.500;2022-07-29T03:55:20;13.90;99.90
13835;DHT22;6988;52.614;13.500;2022-07-29T04:00:13;13.90;99.90
13835;DHT22;6988;52.614;13.500;2022-07-29T04:05:11;13.90;99.90
13835;DHT22;6988;52.614;13.500;2022-07-29T04:10:05;13.90;99.90
13835;DHT22;6988;52.614;13.500;2022-07-29T04:14:59;13.90;99.90
13835;DHT22;6988;52.614;13.500;2022-07-29T04:19:51;14.00;99.90
13835;DHT22;6988;52.614;13.500;2022-07-29T04:24:43;14.00;99.90
13835;DHT22;6988;52.614;13.500;2022-07-29T04:29:35;14.00;99.90
13835;DHT22;6988;52.614;13.500;2022-07-29T04:34:28;14.10;99.90
13835;DHT22;6988;52.614;13.500;2022-07-29T04:39:19;14.10;99.90
13835;DHT22;6988;52.614;13.500;2022-07-29T04:44:11;14.30;99.90
13835;DHT22;6988;52.614;13.500;2022-07-29T04:49:03;14.40;99.90
13835;DHT22;6988;52.614;13.500;2022-07-29T04:53:56;14.50;99.90
13835;DHT22;6988;52.614;13.500;2022-07-29T04:58:48;14.50;99.90
13835;DHT22;6988;52.614;13.500;2022-07-29T05:03:40;14.60;99.90
13835;DHT22;6988;52.614;13.500;2022-07-29T05:08:31;14.60;99.90
13835;DHT22;6988;52.614;13.500;2022-07-29T05:13:24;14.70;99.90
13835;DHT22;6988;52.614;13.500;2022-07-29T05:18:16;14.70;99.90
13835;DHT22;6988;52.614;13.500;2022-07-29T05:23:08;14.80;99.90
13835;DHT22;6988;52.614;13.500;2022-07-29T05:28:03;15.00;99.90
13835;DHT22;6988;52.614;13.500;2022-07-29T05:32:56;15.20;99.90
13835;DHT22;6988;52.614;13.500;2022-07-29T05:37:48;15.40;99.90
13835;DHT22;6988;52.614;13.500;2022-07-29T05:42:40;15.70;99.90
13835;DHT22;6988;52.614;13.500;2022-07-29T05:47:32;15.90;99.90
13835;DHT22;6988;52.614;13.500;2022-07-29T05:52:26;16.10;99.90
13835;DHT22;6988;52.614;13.500;2022-07-29T05:57:18;16.20;99.90
13835;DHT22;6988;52.614;13.500;2022-07-29T06:02:11;16.20;99.90
13835;DHT22;6988;52.614;13.500;2022-07-29T06:07:03;16.20;99.90
13835;DHT22;6988;52.614;13.500;2022-07-29T06:11:56;16.40;99.90
13835;DHT22;6988;52.614;13.500;2022-07-29T06:16:48;16.50;99.90
13835;DHT22;6988;52.614;13.500;2022-07-29T06:21:41;16.80;99.90
13835;DHT22;6988;52.614;13.500;2022-07-29T06:26:33;17.00;99.90
13835;DHT22;6988;52.614;13.500;2022-07-29T06:31:26;17.20;99.90
13835;DHT22;6988;52.614;13.500;2022-07-29T06:36:18;17.50;99.90
13835;DHT22;6988;52.614;13.500;2022-07-29T06:41:10;17.70;99.90
13835;DHT22;6988;52.614;13.500;2022-07-29T06:46:04;18.10;99.90
13835;DHT22;6988;52.614;13.500;2022-07-29T06:50:59;18.30;99.90
13835;DHT22;6988;52.614;13.500;2022-07-29T06:55:52;18.40;99.90
13835;DHT22;6988;52.614;13.500;2022-07-29T07:00:44;18.60;99.90
13835;DHT22;6988;52.614;13.500;2022-07-29T07:05:35;18.80;99.90
13835;DHT22;6988;52.614;13.500;2022-07-29T07:10:28;18.80;99.90
13835;DHT22;6988;52.614;13.500;2022-07-29T07:15:20;19.10;99.90
13835;DHT22;6988;52.614;13.500;2022-07-29T07:20:12;19.40;99.90
13835;DHT22;6988;52.614;13.500;2022-07-29T07:25:04;19.70;99.90
13835;DHT22;6988;52.614;13.500;2022-07-29T07:29:58;19.90;99.90
13835;DHT22;6988;52.614;13.500;2022-07-29T07:34:50;20.60;99.90
13835;DHT22;6988;52.614;13.500;2022-07-29T07:39:42;21.40;99.90
13835;DHT22;6988;52.614;13.500;2022-07-29T07:44:33;22.10;99.90
13835;DHT22;6988;52.614;13.500;2022-07-29T07:49:26;22.20;99.90
13835;DHT22;6988;52.614;13.500;2022-07-29T07:54:18;22.50;99.90
13835;DHT22;6988;52.614;13.500;2022-07-29T07:59:10;23.10;99.90
13835;DHT22;6988;52.614;13.500;2022-07-29T08:04:01;23.60;99.90
13835;DHT22;6988;52.614;13.500;2022-07-29T08:08:54;24.40;99.90
13835;DHT22;6988;52.614;13.500;2022-07-29T08:13:49;24.70;99.90
13835;DHT22;6988;52.614;13.500;2022-07-29T08:18:42;24.80;99.90
13835;DHT22;6988;52.614;13.500;2022-07-29T08:23:35;25.20;99.90
13835;DHT22;6988;52.614;13.500;2022-07-29T08:28:30;25.00;99.90
13835;DHT22;6988;52.614;13.500;2022-07-29T08:33:22;25.50;99.90
13835;DHT22;6988;52.614;13.500;2022-07-29T08:38:14;26.00;99.90
13835;DHT22;6988;52.614;13.500;2022-07-29T08:43:06;26.30;98.40
13835;DHT22;6988;52.614;13.500;2022-07-29T08:48:00;26.50;98.30
13835;DHT22;6988;52.614;13.500;2022-07-29T08:52:52;27.00;96.80
13835;DHT22;6988;52.614;13.500;2022-07-29T08:57:44;27.30;95.60
13835;DHT22;6988;52.614;13.500;2022-07-29T09:02:40;26.80;97.10
13835;DHT22;6988;52.614;13.500;2022-07-29T09:07:38;27.10;94.60
13835;DHT22;6988;52.614;13.500;2022-07-29T09:12:32;27.60;93.50
13835;DHT22;6988;52.614;13.500;2022-07-29T09:17:40;27.00;93.00
13835;DHT22;6988;52.614;13.500;2022-07-29T09:22:33;26.40;93.30
13835;DHT22;6988;52.614;13.500;2022-07-29T09:27:26;26.20;93.50
13835;DHT22;6988;52.614;13.500;2022-07-29T09:32:19;26.50;93.10
13835;DHT22;6988;52.614;13.500;2022-07-29T09:37:10;27.20;91.80
13835;DHT22;6988;52.614;13.500;2022-07-29T09:42:04;28.20;91.10
13835;DHT22;6988;52.614;13.500;2022-07-29T09:47:02;28.40;86.20
13835;DHT22;6988;52.614;13.500;2022-07-29T09:52:05;28.00;83.30
13835;DHT22;6988;52.614;13.500;2022-07-29T09:56:58;28.00;86.60
13835;DHT22;6988;52.614;13.500;2022-07-29T10:01:50;27.70;86.10
13835;DHT22;6988;52.614;13.500;2022-07-29T10:06:57;27.30;87.80
13835;DHT22;6988;52.614;13.500;2022-07-29T10:12:06;27.10;88.00
13835;DHT22;6988;52.614;13.500;2022-07-29T10:17:01;27.00;85.10
13835;DHT22;6988;52.614;13.500;2022-07-29T10:21:55;26.70;86.10
13835;DHT22;6988;52.614;13.500;2022-07-29T10:26:48;27.00;83.80
13835;DHT22;6988;52.614;13.500;2022-07-29T10:31:46;27.60;79.90
13835;DHT22;6988;52.614;13.500;2022-07-29T10:36:53;28.30;81.10
13835;DHT22;6988;52.614;13.500;2022-07-29T10:42:13;28.60;80.50
13835;DHT22;6988;52.614;13.500;2022-07-29T10:47:19;28.80;77.70
13835;DHT22;6988;52.614;13.500;2022-07-29T10:52:13;29.20;78.00
13835;DHT22;6988;52.614;13.500;2022-07-29T10:57:12;29.70;77.20
13835;DHT22;6988;52.614;13.500;2022-07-29T11:07:37;29.20;77.00
13835;DHT22;6988;52.614;13.500;2022-07-29T11:12:46;29.10;73.80
13835;DHT22;6988;52.614;13.500;2022-07-29T11:18:03;28.90;78.30
13835;DHT22;6988;52.614;13.500;2022-07-29T11:23:00;29.20;73.80
13835;DHT22;6988;52.614;13.500;2022-07-29T11:27:54;28.80;73.60
13835;DHT22;6988;52.614;13.500;2022-07-29T11:33:01;28.40;74.90
13835;DHT22;6988;52.614;13.500;2022-07-29T11:43:45;28.40;78.20
13835;DHT22;6988;52.614;13.500;2022-07-29T11:48:41;29.50;79.10
13835;DHT22;6988;52.614;13.500;2022-07-29T11:53:35;30.20;75.80
13835;DHT22;6988;52.614;13.500;2022-07-29T11:58:28;30.80;72.90
13835;DHT22;6988;52.614;13.500;2022-07-29T12:03:24;31.00;76.30
13835;DHT22;6988;52.614;13.500;2022-07-29T12:08:19;31.40;73.10
13835;DHT22;6988;52.614;13.500;2022-07-29T12:13:21;31.40;72.40
13835;DHT22;6988;52.614;13.500;2022-07-29T12:18:16;30.80;72.40
13835;DHT22;6988;52.614;13.500;2022-07-29T12:23:10;30.80;73.90
13835;DHT22;6988;52.614;13.500;2022-07-29T12:28:05;30.90;74.10
13835;DHT22;6988;52.614;13.500;2022-07-29T12:33:00;31.10;73.40
13835;DHT22;6988;52.614;13.500;2022-07-29T12:37:52;30.90;74.90
13835;DHT22;6988;52.614;13.500;2022-07-29T12:43:06;30.60;76.20
13835;DHT22;6988;52.614;13.500;2022-07-29T12:48:00;30.30;76.40
13835;DHT22;6988;52.614;13.500;2022-07-29T12:52:53;30.40;78.70
13835;DHT22;6988;52.614;13.500;2022-07-29T12:57:45;30.60;77.10
13835;DHT22;6988;52.614;13.500;2022-07-29T13:02:39;30.50;77.10
13835;DHT22;6988;52.614;13.500;2022-07-29T13:07:34;29.80;79.50
13835;DHT22;6988;52.614;13.500;2022-07-29T13:12:27;29.50;78.10
13835;DHT22;6988;52.614;13.500;2022-07-29T13:17:19;29.70;79.10
13835;DHT22;6988;52.614;13.500;2022-07-29T13:22:14;29.50;81.60
13835;DHT22;6988;52.614;13.500;2022-07-29T13:27:08;29.70;79.80
13835;DHT22;6988;52.614;13.500;2022-07-29T13:32:00;29.70;79.90
13835;DHT22;6988;52.614;13.500;2022-07-29T13:36:52;29.60;80.00
13835;DHT22;6988;52.614;13.500;2022-07-29T13:41:43;29.50;81.80
13835;DHT22;6988;52.614;13.500;2022-07-29T13:46:36;29.40;80.30
13835;DHT22;6988;52.614;13.500;2022-07-29T13:51:28;28.70;82.20
13835;DHT22;6988;52.614;13.500;2022-07-29T13:56:20;28.50;83.90
13835;DHT22;6988;52.614;13.500;2022-07-29T14:01:12;29.20;84.90
13835;DHT22;6988;52.614;13.500;2022-07-29T14:06:05;29.80;82.20
13835;DHT22;6988;52.614;13.500;2022-07-29T14:10:56;30.00;81.70
13835;DHT22;6988;52.614;13.500;2022-07-29T14:15:48;30.30;80.00
13835;DHT22;6988;52.614;13.500;2022-07-29T14:20:40;30.40;78.90
13835;DHT22;6988;52.614;13.500;2022-07-29T14:25:33;30.40;77.50
13835;DHT22;6988;52.614;13.500;2022-07-29T14:30:25;30.50;78.20
13835;DHT22;6988;52.614;13.500;2022-07-29T14:35:16;30.10;77.70
13835;DHT22;6988;52.614;13.500;2022-07-29T14:40:09;29.40;79.50
13835;DHT22;6988;52.614;13.500;2022-07-29T14:45:04;29.80;79.90
13835;DHT22;6988;52.614;13.500;2022-07-29T14:49:57;30.20;76.90
13835;DHT22;6988;52.614;13.500;2022-07-29T14:54:48;30.00;78.00
13835;DHT22;6988;52.614;13.500;2022-07-29T14:59:40;30.10;77.90
13835;DHT22;6988;52.614;13.500;2022-07-29T15:04:33;29.90;76.30
13835;DHT22;6988;52.614;13.500;2022-07-29T15:09:25;29.40;78.60
13835;DHT22;6988;52.614;13.500;2022-07-29T15:14:17;29.10;77.50
13835;DHT22;6988;52.614;13.500;2022-07-29T15:19:09;29.20;78.50
13835;DHT22;6988;52.614;13.500;2022-07-29T15:24:03;29.30;77.50
13835;DHT22;6988;52.614;13.500;2022-07-29T15:28:55;29.30;79.70
13835;DHT22;6988;52.614;13.500;2022-07-29T15:33:47;29.50;79.90
13835;DHT22;6988;52.614;13.500;2022-07-29T15:38:39;29.20;78.00
13835;DHT22;6988;52.614;13.500;2022-07-29T15:43:32;28.70;80.40
13835;DHT22;6988;52.614;13.500;2022-07-29T15:48:25;28.40;79.60
13835;DHT22;6988;52.614;13.500;2022-07-29T15:53:16;28.40;80.90
13835;DHT22;6988;52.614;13.500;2022-07-29T15:58:08;28.40;79.10
13835;DHT22;6988;52.614;13.500;2022-07-29T16:03:01;28.10;80.60
13835;DHT22;6988;52.614;13.500;2022-07-29T16:07:53;28.30;80.10
13835;DHT22;6988;52.614;13.500;2022-07-29T16:12:45;28.50;79.90
13835;DHT22;6988;52.614;13.500;2022-07-29T16:17:37;28.50;80.10
13835;DHT22;6988;52.614;13.500;2022-07-29T16:22:31;28.30;78.70
13835;DHT22;6988;52.614;13.500;2022-07-29T16:27:23;28.10;80.00
13835;DHT22;6988;52.614;13.500;2022-07-29T16:32:17;28.10;80.80
13835;DHT22;6988;52.614;13.500;2022-07-29T16:37:09;28.00;80.20
13835;DHT22;6988;52.614;13.500;2022-07-29T16:42:02;27.90;80.00
13835;DHT22;6988;52.614;13.500;2022-07-29T16:46:55;27.80;80.80
13835;DHT22;6988;52.614;13.500;2022-07-29T16:51:47;27.60;80.20
13835;DHT22;6988;52.614;13.500;2022-07-29T16:56:39;27.40;80.90
13835;DHT22;6988;52.614;13.500;2022-07-29T17:01:32;27.10;81.60
13835;DHT22;6988;52.614;13.500;2022-07-29T17:06:24;26.90;82.40
13835;DHT22;6988;52.614;13.500;2022-07-29T17:11:15;26.90;82.90
13835;DHT22;6988;52.614;13.500;2022-07-29T17:16:07;26.80;82.50
13835;DHT22;6988;52.614;13.500;2022-07-29T17:21:01;26.70;83.10
13835;DHT22;6988;52.614;13.500;2022-07-29T17:25:53;26.60;83.00
13835;DHT22;6988;52.614;13.500;2022-07-29T17:30:44;26.50;83.50
13835;DHT22;6988;52.614;13.500;2022-07-29T17:35:36;26.40;83.50
13835;DHT22;6988;52.614;13.500;2022-07-29T17:40:47;26.30;83.80
13835;DHT22;6988;52.614;13.500;2022-07-29T17:45:39;26.20;83.10
13835;DHT22;6988;52.614;13.500;2022-07-29T17:50:30;26.10;84.50
13835;DHT22;6988;52.614;13.500;2022-07-29T17:55:22;26.00;84.70
13835;DHT22;6988;52.614;13.500;2022-07-29T18:00:16;25.80;84.60
13835;DHT22;6988;52.614;13.500;2022-07-29T18:05:08;25.70;86.10
13835;DHT22;6988;52.614;13.500;2022-07-29T18:10:00;25.50;85.70
13835;DHT22;6988;52.614;13.500;2022-07-29T18:14:52;25.30;87.80
13835;DHT22;6988;52.614;13.500;2022-07-29T18:19:45;25.20;86.90
13835;DHT22;6988;52.614;13.500;2022-07-29T18:24:37;25.10;88.10
13835;DHT22;6988;52.614;13.500;2022-07-29T18:29:29;24.90;88.70
13835;DHT22;6988;52.614;13.500;2022-07-29T18:34:21;24.80;89.50
13835;DHT22;6988;52.614;13.500;2022-07-29T18:39:14;24.70;90.10
13835;DHT22;6988;52.614;13.500;2022-07-29T18:44:06;24.50;89.70
13835;DHT22;6988;52.614;13.500;2022-07-29T18:48:59;24.40;90.70
13835;DHT22;6988;52.614;13.500;2022-07-29T18:53:52;24.20;90.90
13835;DHT22;6988;52.614;13.500;2022-07-29T18:58:45;24.00;91.50
13835;DHT22;6988;52.614;13.500;2022-07-29T19:03:37;23.90;92.10
13835;DHT22;6988;52.614;13.500;2022-07-29T19:08:29;23.70;92.30
13835;DHT22;6988;52.614;13.500;2022-07-29T19:13:21;23.60;92.90
13835;DHT22;6988;52.614;13.500;2022-07-29T19:18:14;23.50;92.70
13835;DHT22;6988;52.614;13.500;2022-07-29T19:23:06;23.30;93.10
13835;DHT22;6988;52.614;13.500;2022-07-29T19:27:59;23.20;94.20
13835;DHT22;6988;52.614;13.500;2022-07-29T19:32:51;23.00;94.30
13835;DHT22;6988;52.614;13.500;2022-07-29T19:37:44;22.90;94.90
13835;DHT22;6988;52.614;13.500;2022-07-29T19:42:36;22.80;95.40
13835;DHT22;6988;52.614;13.500;2022-07-29T19:47:28;22.60;95.80
13835;DHT22;6988;52.614;13.500;2022-07-29T19:52:19;22.50;95.80
13835;DHT22;6988;52.614;13.500;2022-07-29T19:57:13;22.40;96.60
13835;DHT22;6988;52.614;13.500;2022-07-29T20:02:05;22.30;96.50
13835;DHT22;6988;52.614;13.500;2022-07-29T20:07:00;22.20;97.00
13835;DHT22;6988;52.614;13.500;2022-07-29T20:11:51;22.10;97.10
13835;DHT22;6988;52.614;13.500;2022-07-29T20:16:44;22.00;97.40
13835;DHT22;6988;52.614;13.500;2022-07-29T20:21:37;21.90;98.10
13835;DHT22;6988;52.614;13.500;2022-07-29T20:26:29;21.80;98.40
13835;DHT22;6988;52.614;13.500;2022-07-29T20:31:21;21.70;98.90
13835;DHT22;6988;52.614;13.500;2022-07-29T20:36:15;21.60;99.20
13835;DHT22;6988;52.614;13.500;2022-07-29T20:41:07;21.40;99.60
13835;DHT22;6988;52.614;13.500;2022-07-29T20:45:59;21.40;99.60
13835;DHT22;6988;52.614;13.500;2022-07-29T20:50:51;21.40;99.50
13835;DHT22;6988;52.614;13.500;2022-07-29T20:55:45;21.40;99.30
13835;DHT22;6988;52.614;13.500;2022-07-29T21:00:37;21.20;99.90
13835;DHT22;6988;52.614;13.500;2022-07-29T21:05:29;21.10;99.90
13835;DHT22;6988;52.614;13.500;2022-07-29T21:10:21;21.00;99.90
13835;DHT22;6988;52.614;13.500;2022-07-29T21:15:14;20.90;99.90
13835;DHT22;6988;52.614;13.500;2022-07-29T21:20:07;20.70;99.90
13835;DHT22;6988;52.614;13.500;2022-07-29T21:25:01;20.70;99.90
13835;DHT22;6988;52.614;13.500;2022-07-29T21:29:53;20.80;99.90
13835;DHT22;6988;52.614;13.500;2022-07-29T21:34:47;20.70;99.90
13835;DHT22;6988;52.614;13.500;2022-07-29T21:39:39;20.70;99.90
13835;DHT22;6988;52.614;13.500;2022-07-29T21:44:30;20.50;99.90
13835;DHT22;6988;52.614;13.500;2022-07-29T21:49:22;20.40;99.90
13835;DHT22;6988;52.614;13.500;2022-07-29T21:54:15;20.30;99.90
13835;DHT22;6988;52.614;13.500;2022-07-29T21:59:07;20.30;99.90
13835;DHT22;6988;52.614;13.500;2022-07-29T22:03:59;20.20;99.90
13835;DHT22;6988;52.614;13.500;2022-07-29T22:08:51;20.10;99.90
13835;DHT22;6988;52.614;13.500;2022-07-29T22:13:44;20.10;99.90
13835;DHT22;6988;52.614;13.500;2022-07-29T22:18:35;20.00;99.90
13835;DHT22;6988;52.614;13.500;2022-07-29T22:23:27;19.90;99.90
13835;DHT22;6988;52.614;13.500;2022-07-29T22:28:19;19.80;99.90
13835;DHT22;6988;52.614;13.500;2022-07-29T22:33:12;19.70;99.90
13835;DHT22;6988;52.614;13.500;2022-07-29T22:38:04;19.90;99.90
13835;DHT22;6988;52.614;13.500;2022-07-29T22:42:55;19.70;99.90
13835;DHT22;6988;52.614;13.500;2022-07-29T22:47:47;19.70;99.90
13835;DHT22;6988;52.614;13.500;2022-07-29T22:52:40;19.80;99.90
13835;DHT22;6988;52.614;13.500;2022-07-29T22:57:32;19.60;99.90
13835;DHT22;6988;52.614;13.500;2022-07-29T23:02:24;19.70;99.90
13835;DHT22;6988;52.614;13.500;2022-07-29T23:07:15;19.80;99.90
13835;DHT22;6988;52.614;13.500;2022-07-29T23:12:09;19.90;99.90
13835;DHT22;6988;52.614;13.500;2022-07-29T23:17:00;19.80;99.90
13835;DHT22;6988;52.614;13.500;2022-07-29T23:21:52;19.80;99.90
13835;DHT22;6988;52.614;13.500;2022-07-29T23:26:44;19.80;99.90
13835;DHT22;6988;52.614;13.500;2022-07-29T23:31:37;19.90;99.90
13835;DHT22;6988;52.614;13.500;2022-07-29T23:36:29;19.90;99.90
13835;DHT22;6988;52.614;13.500;2022-07-29T23:41:20;19.70;99.90
13835;DHT22;6988;52.614;13.500;2022-07-29T23:46:13;19.80;99.90
13835;DHT22;6988;52.614;13.500;2022-07-29T23:51:06;19.70;99.90
13835;DHT22;6988;52.614;13.500;2022-07-29T23:55:57;19.50;99.90
